Time;durP1;ratioP1;P1;durP2;ratioP2;P2;SDS_P1;SDS_P2;PMS_P1;PMS_P2;Temp;Humidity;BMP_temperature;BMP_pressure;BME280_temperature;BME280_humidity;BME280_pressure;Samples;Min_cycle;Max_cycle;Signal;HPM_P1;HPM_P2
2023/08/20 00:02:58;;;;;;;19.90;16.30;;;;;;;20.70;79.98;100123.10;217972;1254;141511;-67
2023/08/20 00:08:02;;;;;;;18.60;16.60;;;;;;;20.70;79.91;100121.31;217805;1260;139972;-67
2023/08/20 00:13:06;;;;;;;21.40;19.30;;;;;;;20.57;79.73;100119.15;218222;1257;140184;-67
2023/08/20 00:18:11;;;;;;;17.50;15.80;;;;;;;20.44;80.05;100125.17;218488;1257;140447;-67
2023/08/20 00:23:15;;;;;;;19.60;17.10;;;;;;;20.40;80.28;100120.52;217976;1259;141112;-67
2023/08/20 00:28:20;;;;;;;20.70;17.40;;;;;;;20.41;80.53;100110.55;219470;1257;140757;-67
2023/08/20 00:33:23;;;;;;;19.40;17.60;;;;;;;20.36;80.35;100104.75;218702;1258;140755;-67
2023/08/20 00:38:28;;;;;;;19.20;17.30;;;;;;;20.22;80.44;100105.61;217942;1258;139974;-67
2023/08/20 00:43:33;;;;;;;19.00;17.20;;;;;;;20.09;81.01;100105.02;219190;1258;140871;-67
2023/08/20 00:48:38;;;;;;;17.30;15.60;;;;;;;20.06;81.16;100103.80;219664;1257;140709;-67
2023/08/20 00:53:43;;;;;;;26.00;17.30;;;;;;;19.97;80.95;100104.27;219967;1254;141874;-67
2023/08/20 00:58:47;;;;;;;19.00;17.20;;;;;;;19.89;81.27;100105.23;221075;1257;140894;-67
2023/08/20 01:03:54;;;;;;;18.10;16.50;;;;;;;19.88;81.40;100099.34;219827;1255;248609;-66
2023/08/20 01:09:12;;;;;;;21.10;16.70;;;;;;;19.86;81.35;100099.66;219410;1255;140583;-66
2023/08/20 01:14:18;;;;;;;16.70;15.10;;;;;;;19.76;81.15;100104.07;218246;1259;140204;-65
2023/08/20 01:19:22;;;;;;;19.00;16.50;;;;;;;19.63;81.44;100107.77;219841;1253;140124;-66
2023/08/20 01:24:46;;;;;;;17.10;15.40;;;;;;;19.56;81.91;100107.52;218779;1255;140961;-67
2023/08/20 01:29:51;;;;;;;16.60;15.20;;;;;;;19.59;82.32;100109.05;218099;1260;139979;-66
2023/08/20 01:34:56;;;;;;;18.70;16.90;;;;;;;19.64;82.58;100108.73;218225;1259;140219;-66
2023/08/20 01:40:00;;;;;;;19.50;17.50;;;;;;;19.68;82.63;100110.75;218320;1257;139932;-68
2023/08/20 01:45:05;;;;;;;21.90;19.10;;;;;;;19.66;82.51;100117.10;218888;1258;141442;-69
2023/08/20 01:50:11;;;;;;;23.10;19.00;;;;;;;19.64;82.67;100116.58;218137;1254;140804;-67
2023/08/20 01:55:14;;;;;;;19.60;17.60;;;;;;;19.60;82.78;100116.66;218372;1254;141340;-67
2023/08/20 02:00:18;;;;;;;19.50;17.50;;;;;;;19.54;82.89;100118.31;218349;1254;141775;-66
2023/08/20 02:05:22;;;;;;;19.20;17.20;;;;;;;19.48;82.85;100128.98;219137;1259;141465;-66
2023/08/20 02:10:26;;;;;;;20.90;17.50;;;;;;;19.44;82.91;100135.71;218850;1254;140723;-66
2023/08/20 02:15:29;;;;;;;18.90;17.10;;;;;;;19.39;82.93;100134.61;218120;1254;140008;-68
2023/08/20 02:20:33;;;;;;;18.10;16.50;;;;;;;19.31;83.01;100133.00;219011;1257;140264;-67
2023/08/20 02:25:37;;;;;;;17.90;16.30;;;;;;;19.25;82.92;100133.16;218207;1257;141376;-67
2023/08/20 02:30:46;;;;;;;16.40;15.00;;;;;;;19.14;82.95;100128.05;219580;1257;140447;-67
2023/08/20 02:35:50;;;;;;;18.40;16.60;;;;;;;19.07;83.17;100125.18;218848;1254;140902;-67
2023/08/20 02:40:53;;;;;;;18.40;15.70;;;;;;;19.03;83.19;100126.50;218545;1254;141235;-67
2023/08/20 02:45:57;;;;;;;16.70;15.20;;;;;;;18.99;83.24;100127.29;220999;1254;141464;-67
2023/08/20 02:51:00;;;;;;;16.70;15.20;;;;;;;18.94;83.36;100127.56;220372;1254;140042;-67
2023/08/20 02:56:03;;;;;;;15.30;13.90;;;;;;;18.91;83.52;100129.68;220732;1258;142090;-67
2023/08/20 03:01:07;;;;;;;15.90;14.30;;;;;;;18.90;83.48;100125.15;218465;1259;141352;-67
2023/08/20 03:06:12;;;;;;;17.50;15.90;;;;;;;18.89;83.49;100122.89;220451;1254;141139;-68
2023/08/20 03:11:16;;;;;;;19.40;16.60;;;;;;;18.90;83.62;100126.34;219127;1254;141974;-68
2023/08/20 03:16:18;;;;;;;15.80;14.40;;;;;;;18.89;83.64;100128.83;219604;1255;139782;-68
2023/08/20 03:21:21;;;;;;;17.70;16.00;;;;;;;18.80;83.60;100126.66;219039;1254;140140;-68
2023/08/20 03:26:27;;;;;;;15.20;13.80;;;;;;;18.72;83.78;100124.21;218570;1257;139917;-69
2023/08/20 03:31:30;;;;;;;15.20;13.90;;;;;;;18.63;83.78;100132.50;218473;1254;140479;-68
2023/08/20 03:36:33;;;;;;;15.30;13.80;;;;;;;18.60;84.18;100128.23;219070;1254;140897;-68
2023/08/20 03:41:38;;;;;;;16.50;14.70;;;;;;;18.56;84.12;100129.04;218159;1254;141938;-67
2023/08/20 03:46:43;;;;;;;23.20;14.50;;;;;;;18.52;84.41;100133.27;218226;1254;140889;-68
2023/08/20 03:51:47;;;;;;;16.10;14.50;;;;;;;18.51;84.56;100135.54;218437;1254;139919;-66
2023/08/20 03:56:51;;;;;;;16.10;14.60;;;;;;;18.51;84.62;100138.73;218121;1257;140098;-66
2023/08/20 04:01:55;;;;;;;16.50;15.10;;;;;;;18.53;84.74;100137.37;218248;1254;141647;-68
2023/08/20 04:06:58;;;;;;;18.00;15.40;;;;;;;18.54;84.89;100134.61;217927;1257;141457;-67
2023/08/20 04:12:04;;;;;;;16.50;14.70;;;;;;;18.50;84.91;100139.59;218487;1254;140102;-68
2023/08/20 04:17:08;;;;;;;20.70;18.10;;;;;;;18.52;85.24;100140.92;218350;1255;140017;-68
2023/08/20 04:22:12;;;;;;;17.00;14.90;;;;;;;18.60;85.66;100144.00;219015;1254;141010;-69
2023/08/20 04:27:17;;;;;;;20.90;18.90;;;;;;;18.67;85.63;100141.85;218568;1254;140839;-68
2023/08/20 04:32:20;;;;;;;21.50;16.20;;;;;;;18.73;85.70;100153.11;218338;1254;141321;-72
2023/08/20 04:37:24;;;;;;;18.40;16.60;;;;;;;18.79;86.03;100156.33;218960;1257;140454;-71
2023/08/20 04:42:27;;;;;;;18.20;16.30;;;;;;;18.92;86.42;100156.58;220622;1253;139963;-69
2023/08/20 04:47:30;;;;;;;20.00;18.10;;;;;;;19.06;86.34;100166.42;220363;1254;141120;-71
2023/08/20 04:52:35;;;;;;;19.70;17.60;;;;;;;19.21;86.51;100171.80;221157;1254;140935;-74
2023/08/20 04:57:39;;;;;;;19.10;17.20;;;;;;;19.41;86.61;100172.23;220003;1253;140432;-68
2023/08/20 05:02:44;;;;;;;22.00;19.80;;;;;;;19.61;86.70;100174.48;218485;1254;140088;-70
2023/08/20 05:07:49;;;;;;;21.20;19.20;;;;;;;19.81;86.89;100180.52;219698;1256;141948;-69
2023/08/20 05:12:53;;;;;;;20.90;19.00;;;;;;;20.01;87.13;100184.98;219404;1254;163022;-69
2023/08/20 05:17:58;;;;;;;24.80;22.40;;;;;;;20.20;87.32;100181.30;218359;1254;139814;-68
2023/08/20 05:23:03;;;;;;;27.80;24.90;;;;;;;20.41;87.56;100181.38;219742;1253;140798;-69
2023/08/20 05:28:07;;;;;;;27.70;25.00;;;;;;;20.60;87.88;100184.45;218385;1254;139732;-72
2023/08/20 05:33:11;;;;;;;29.30;26.30;;;;;;;20.80;88.31;100180.56;217993;1257;140191;-70
2023/08/20 05:38:16;;;;;;;32.70;29.20;;;;;;;21.03;88.31;100180.31;218590;1254;140369;-69
2023/08/20 05:43:20;;;;;;;31.70;28.40;;;;;;;21.26;88.38;100186.39;218152;1257;140702;-68
2023/08/20 05:48:24;;;;;;;32.10;28.60;;;;;;;21.51;88.20;100187.08;218289;1254;141608;-67
2023/08/20 05:53:27;;;;;;;33.10;29.80;;;;;;;21.82;88.25;100193.88;218871;1254;140194;-67
2023/08/20 05:58:30;;;;;;;30.10;27.20;;;;;;;22.29;87.87;100196.73;218032;1254;140335;-68
2023/08/20 06:03:34;;;;;;;32.60;28.40;;;;;;;22.56;87.93;100193.05;218829;1254;140680;-67
2023/08/20 06:08:37;;;;;;;28.90;25.90;;;;;;;22.75;87.72;100197.50;217852;1254;140000;-67
2023/08/20 06:13:41;;;;;;;29.20;26.20;;;;;;;22.92;86.57;100200.00;220103;1253;140875;-69
2023/08/20 06:18:45;;;;;;;29.80;26.90;;;;;;;23.03;86.30;100207.78;218275;1254;140981;-67
2023/08/20 06:23:49;;;;;;;28.00;25.10;;;;;;;23.20;86.33;100207.46;219173;1254;141107;-67
2023/08/20 06:28:53;;;;;;;30.60;27.60;;;;;;;23.37;86.26;100211.41;220074;1257;141979;-67
2023/08/20 06:33:58;;;;;;;30.60;27.60;;;;;;;23.58;85.84;100217.15;218843;1257;140156;-66
2023/08/20 06:39:02;;;;;;;31.20;28.10;;;;;;;23.77;85.25;100220.92;218961;1253;141009;-67
2023/08/20 06:44:05;;;;;;;27.00;24.60;;;;;;;24.17;84.62;100222.77;220157;1253;140005;-67
2023/08/20 06:49:09;;;;;;;27.80;25.10;;;;;;;24.91;83.83;100229.59;220789;1254;140645;-68
2023/08/20 06:54:12;;;;;;;26.00;23.60;;;;;;;25.92;82.99;100228.39;220714;1254;140764;-67
2023/08/20 06:59:16;;;;;;;22.70;20.40;;;;;;;27.20;81.18;100234.30;219438;1254;140452;-71
2023/08/20 07:04:20;;;;;;;23.30;20.90;;;;;;;28.53;78.95;100239.24;220260;1253;141165;-70
2023/08/20 07:09:24;;;;;;;22.70;20.80;;;;;;;29.78;76.20;100233.23;219901;1253;140118;-67
2023/08/20 07:14:27;;;;;;;19.70;17.90;;;;;;;30.87;73.68;100239.69;219296;1257;140323;-70
2023/08/20 07:19:31;;;;;;;18.60;16.90;;;;;;;31.45;71.10;100239.27;218045;1257;141625;-68
2023/08/20 07:24:35;;;;;;;17.00;15.50;;;;;;;31.47;69.15;100245.13;218314;1254;140532;-68
2023/08/20 07:29:38;;;;;;;18.50;17.10;;;;;;;31.55;67.65;100249.45;218652;1257;139835;-69
2023/08/20 07:34:44;;;;;;;17.40;15.90;;;;;;;31.76;66.42;100255.55;218372;1254;139868;-69
2023/08/20 07:39:50;;;;;;;16.60;15.20;;;;;;;31.91;65.58;100261.05;218984;1253;140295;-69
2023/08/20 07:44:53;;;;;;;15.10;13.90;;;;;;;31.93;64.57;100266.77;218377;1254;139275;-70
2023/08/20 07:49:55;;;;;;;17.30;15.70;;;;;;;32.05;63.83;100268.81;218219;1257;140625;-71
2023/08/20 07:54:58;;;;;;;16.70;14.70;;;;;;;32.08;62.81;100272.39;218674;1255;139106;-69
2023/08/20 08:00:04;;;;;;;15.40;13.90;;;;;;;32.25;62.29;100273.65;218509;1254;140161;-69
2023/08/20 08:05:08;;;;;;;24.20;11.20;;;;;;;32.43;61.35;100276.10;218625;1254;140152;-67
2023/08/20 08:10:16;;;;;;;17.30;12.40;;;;;;;32.54;60.22;100274.38;218108;1254;139427;-69
2023/08/20 08:15:19;;;;;;;12.60;11.60;;;;;;;32.56;59.43;100271.88;219219;1254;140769;-68
2023/08/20 08:20:22;;;;;;;12.40;11.40;;;;;;;32.54;58.87;100272.90;219155;1257;139868;-68
2023/08/20 08:25:25;;;;;;;12.10;11.10;;;;;;;32.56;58.27;100274.65;218972;1254;139795;-68
2023/08/20 08:30:29;;;;;;;11.80;10.70;;;;;;;32.62;57.79;100275.15;218794;1254;139266;-68
2023/08/20 08:35:33;;;;;;;12.80;11.50;;;;;;;32.64;57.10;100274.88;218210;1254;139151;-68
2023/08/20 08:40:37;;;;;;;12.20;11.10;;;;;;;32.59;56.52;100273.60;219825;1254;140360;-68
2023/08/20 08:45:48;;;;;;;11.50;10.50;;;;;;;32.60;56.01;100274.48;218833;1254;139225;-69
2023/08/20 08:50:53;;;;;;;12.40;11.00;;;;;;;32.70;55.31;100272.38;219024;1254;139703;-68
2023/08/20 08:55:57;;;;;;;14.40;9.80;;;;;;;32.81;55.36;100270.90;219281;1254;155716;-70
2023/08/20 09:01:01;;;;;;;11.50;10.60;;;;;;;32.87;54.49;100276.75;218303;1259;139392;-69
2023/08/20 09:06:09;;;;;;;12.80;9.80;;;;;;;32.94;53.98;100272.44;218445;1257;139525;-70
2023/08/20 09:11:16;;;;;;;10.70;9.80;;;;;;;33.05;53.25;100274.40;218707;1253;139134;-67
2023/08/20 09:16:19;;;;;;;11.20;10.20;;;;;;;33.10;53.16;100274.31;218728;1254;139503;-68
2023/08/20 09:21:31;;;;;;;12.00;11.00;;;;;;;33.23;53.04;100277.81;218465;1254;139947;-68
2023/08/20 09:26:34;;;;;;;11.40;10.20;;;;;;;33.24;52.64;100273.50;218230;1254;139631;-72
2023/08/20 09:31:39;;;;;;;10.90;10.00;;;;;;;33.22;52.19;100275.98;218298;1257;140306;-70
2023/08/20 09:36:43;;;;;;;11.90;10.90;;;;;;;33.34;52.23;100276.55;219188;1256;140125;-69
2023/08/20 09:41:48;;;;;;;13.10;11.90;;;;;;;33.47;51.50;100273.57;218276;1254;139302;-71
2023/08/20 09:46:51;;;;;;;11.10;10.10;;;;;;;33.46;51.21;100276.48;218787;1254;140718;-73
2023/08/20 09:51:56;;;;;;;10.00;9.30;;;;;;;33.56;51.63;100273.28;218312;1257;140982;-71
2023/08/20 09:57:02;;;;;;;16.40;10.50;;;;;;;33.68;50.99;100273.02;218094;1257;139596;-71
2023/08/20 10:02:09;;;;;;;15.70;10.10;;;;;;;33.72;50.83;100260.43;218504;1257;138923;-72
2023/08/20 10:07:13;;;;;;;10.50;9.50;;;;;;;33.64;49.90;100255.92;218958;1256;140640;-70
2023/08/20 10:12:16;;;;;;;13.10;9.70;;;;;;;33.56;49.15;100252.75;218600;1254;139988;-68
2023/08/20 10:17:18;;;;;;;11.30;9.50;;;;;;;33.50;49.05;100257.81;219142;1255;138891;-69
2023/08/20 10:22:22;;;;;;;25.90;11.00;;;;;;;33.58;48.96;100259.03;218869;1254;139577;-70
2023/08/20 10:27:32;;;;;;;10.20;9.20;;;;;;;33.70;49.15;100263.17;218278;1254;141638;-68
2023/08/20 10:32:56;;;;;;;10.40;9.50;;;;;;;33.66;48.39;100260.20;218042;1254;312296;-70
2023/08/20 10:38:16;;;;;;;10.40;9.60;;;;;;;33.66;48.01;100257.91;218702;1253;139599;-70
2023/08/20 10:43:30;;;;;;;9.80;9.00;;;;;;;33.77;48.13;100251.58;219348;1254;139410;-71
2023/08/20 10:48:34;;;;;;;9.60;8.70;;;;;;;33.73;47.43;100246.70;218931;1254;140310;-70
2023/08/20 10:53:40;;;;;;;9.90;9.00;;;;;;;33.65;47.61;100243.23;220774;1254;139209;-72
2023/08/20 10:58:46;;;;;;;9.50;8.70;;;;;;;33.92;47.85;100243.13;220541;1254;140238;-71
2023/08/20 11:03:50;;;;;;;9.40;8.60;;;;;;;33.99;46.70;100245.73;217906;1254;139411;-71
2023/08/20 11:08:53;;;;;;;;;;;;;;;33.94;45.51;100244.42;218044;1257;139022;-71
2023/08/20 11:13:58;;;;;;;8.70;8.00;;;;;;;33.88;45.29;100241.53;218511;1257;126225;-69
2023/08/20 11:19:02;;;;;;;9.10;8.30;;;;;;;34.03;46.06;100241.42;218739;1256;139559;-69
2023/08/20 11:24:06;;;;;;;11.00;10.00;;;;;;;34.11;45.71;100238.58;217970;1257;140146;-70
2023/08/20 11:29:13;;;;;;;8.10;7.50;;;;;;;33.97;45.81;100238.13;218105;1254;140188;-71
2023/08/20 11:34:18;;;;;;;9.10;8.10;;;;;;;33.86;46.04;100233.21;218567;1254;140637;-69
2023/08/20 11:39:20;;;;;;;8.60;7.80;;;;;;;34.00;45.94;100230.73;218798;1254;139061;-69
2023/08/20 11:44:26;;;;;;;7.80;7.20;;;;;;;34.15;45.12;100226.69;218551;1254;139869;-70
2023/08/20 11:49:29;;;;;;;7.90;7.30;;;;;;;34.25;44.47;100220.98;218145;1254;139646;-70
2023/08/20 11:54:32;;;;;;;7.90;7.10;;;;;;;34.35;43.86;100215.25;218835;1254;140300;-70
2023/08/20 11:59:35;;;;;;;7.50;6.90;;;;;;;34.21;43.59;100219.77;218395;1254;139380;-70
2023/08/20 12:04:38;;;;;;;7.30;6.10;;;;;;;34.18;42.74;100225.05;219214;1253;139159;-69
2023/08/20 12:09:41;;;;;;;6.60;6.10;;;;;;;34.15;42.25;100225.73;218259;1254;139870;-68
2023/08/20 12:14:46;;;;;;;6.40;6.00;;;;;;;34.10;42.93;100226.32;218949;1254;139506;-70
2023/08/20 12:19:49;;;;;;;8.60;6.40;;;;;;;34.10;43.04;100220.55;218294;1257;140218;-69
2023/08/20 12:24:53;;;;;;;26.30;8.60;;;;;;;34.07;43.23;100217.91;218134;1254;140762;-70
2023/08/20 12:29:55;;;;;;;7.90;7.10;;;;;;;34.00;43.43;100220.91;219391;1254;140280;-69
2023/08/20 12:34:58;;;;;;;6.90;6.40;;;;;;;33.93;42.89;100214.07;218265;1254;139344;-69
2023/08/20 12:40:03;;;;;;;6.90;6.40;;;;;;;33.89;42.87;100209.38;219114;1257;140204;-69
2023/08/20 12:45:07;;;;;;;8.10;7.50;;;;;;;33.86;43.21;100205.86;219242;1254;139989;-70
2023/08/20 12:50:13;;;;;;;7.40;6.90;;;;;;;33.79;43.33;100200.33;221011;1253;139837;-70
2023/08/20 12:55:15;;;;;;;7.90;7.20;;;;;;;33.75;43.09;100197.59;220912;1253;139240;-71
2023/08/20 13:00:18;;;;;;;6.60;6.20;;;;;;;33.75;42.88;100197.73;219483;1254;140732;-71
2023/08/20 13:05:23;;;;;;;6.80;6.20;;;;;;;33.77;42.63;100200.69;218168;1254;219510;-68
2023/08/20 13:10:26;;;;;;;6.50;6.00;;;;;;;33.83;42.66;100198.89;219465;1254;140514;-68
2023/08/20 13:15:32;;;;;;;7.00;6.40;;;;;;;33.86;42.45;100206.58;218539;1254;140061;-67
2023/08/20 13:20:38;;;;;;;11.50;6.70;;;;;;;33.85;42.17;100197.24;218038;1257;140162;-70
2023/08/20 13:25:43;;;;;;;10.10;6.20;;;;;;;33.77;42.43;100191.63;218664;1257;139245;-67
2023/08/20 13:30:47;;;;;;;7.70;6.60;;;;;;;33.70;42.40;100190.83;218271;1254;140057;-68
2023/08/20 13:35:49;;;;;;;8.00;7.40;;;;;;;33.45;42.29;100184.87;218855;1254;139036;-68
2023/08/20 13:40:53;;;;;;;7.10;6.20;;;;;;;33.33;42.72;100183.63;218067;1256;139380;-68
2023/08/20 13:46:01;;;;;;;7.80;7.20;;;;;;;33.23;43.03;100181.27;217986;1254;140225;-70
2023/08/20 13:51:04;;;;;;;7.80;7.10;;;;;;;33.16;43.24;100174.55;218599;1254;139248;-68
2023/08/20 13:56:07;;;;;;;7.60;6.90;;;;;;;32.98;42.78;100173.70;218235;1256;139112;-68
2023/08/20 14:01:11;;;;;;;8.70;8.00;;;;;;;32.75;43.14;100179.20;218281;1254;140074;-69
2023/08/20 14:06:16;;;;;;;42.20;9.80;;;;;;;32.76;43.13;100174.65;218041;1257;139252;-68
2023/08/20 14:11:19;;;;;;;10.00;7.40;;;;;;;32.78;43.59;100170.52;218313;1254;139726;-71
2023/08/20 14:16:22;;;;;;;7.90;7.20;;;;;;;32.76;43.69;100170.63;218328;1254;139463;-71
2023/08/20 14:21:24;;;;;;;9.30;8.40;;;;;;;32.69;43.99;100163.27;218015;1254;140173;-67
2023/08/20 14:26:26;;;;;;;9.60;7.00;;;;;;;32.53;44.11;100161.84;218559;1257;139119;-68
2023/08/20 14:31:31;;;;;;;7.60;7.00;;;;;;;32.51;44.24;100162.92;218500;1257;139529;-67
2023/08/20 14:36:35;;;;;;;7.30;6.70;;;;;;;32.44;44.26;100161.56;219287;1254;140145;-67
2023/08/20 14:41:37;;;;;;;10.00;6.70;;;;;;;32.37;44.12;100156.98;219583;1253;139762;-69
2023/08/20 14:46:40;;;;;;;7.90;7.30;;;;;;;32.36;44.26;100151.54;219513;1257;139870;-69
2023/08/20 14:51:44;;;;;;;7.70;7.10;;;;;;;32.37;43.79;100149.64;218611;1254;138915;-68
2023/08/20 14:56:48;;;;;;;7.60;6.90;;;;;;;32.32;43.72;100146.41;218507;1257;140303;-69
2023/08/20 15:01:52;;;;;;;11.40;6.90;;;;;;;32.28;44.12;100140.43;219315;1254;140149;-70
2023/08/20 15:06:56;;;;;;;7.50;7.00;;;;;;;32.22;43.96;100135.98;218598;1254;140497;-68
2023/08/20 15:12:01;;;;;;;7.80;7.30;;;;;;;32.21;44.12;100138.33;218683;1254;139167;-70
2023/08/20 15:17:05;;;;;;;7.80;7.10;;;;;;;32.14;44.62;100129.70;218834;1254;140355;-69
2023/08/20 15:22:14;;;;;;;8.60;7.90;;;;;;;32.06;44.61;100126.35;218799;1256;138828;-68
2023/08/20 15:27:33;;;;;;;7.70;7.10;;;;;;;31.96;44.53;100124.38;218685;1254;140819;-69
2023/08/20 15:32:36;;;;;;;10.10;9.10;;;;;;;31.89;44.38;100117.71;218432;1254;151067;-70
2023/08/20 15:37:39;;;;;;;8.40;7.80;;;;;;;31.82;44.83;100117.05;218274;1254;139697;-70
2023/08/20 15:42:44;;;;;;;79.00;11.10;;;;;;;31.75;44.52;100116.33;218217;1257;139749;-68
2023/08/20 15:47:47;;;;;;;9.80;9.00;;;;;;;31.64;44.45;100110.43;218382;1254;140719;-68
2023/08/20 15:52:50;;;;;;;8.80;8.00;;;;;;;31.49;44.68;100106.77;218227;1254;139113;-68
2023/08/20 15:57:54;;;;;;;7.90;7.30;;;;;;;31.37;44.74;100108.05;219024;1254;139044;-68
2023/08/20 16:02:57;;;;;;;10.50;9.60;;;;;;;31.23;44.98;100112.41;219206;1253;159751;-67
2023/08/20 16:08:02;;;;;;;9.30;7.80;;;;;;;31.11;45.14;100117.30;218691;1254;139666;-66
2023/08/20 16:13:08;;;;;;;9.50;7.40;;;;;;;31.03;45.80;100120.41;218468;1254;140676;-65
2023/08/20 16:18:10;;;;;;;7.90;7.40;;;;;;;30.94;45.75;100115.73;219407;1254;139319;-67
2023/08/20 16:23:12;;;;;;;9.70;7.50;;;;;;;30.85;45.97;100115.40;218375;1255;140774;-66
2023/08/20 16:28:17;;;;;;;8.80;8.10;;;;;;;30.74;46.55;100114.55;218171;1257;139338;-67
2023/08/20 16:33:25;;;;;;;14.80;13.40;;;;;;;30.62;46.76;100121.04;219156;1259;140851;-67
2023/08/20 16:38:37;;;;;;;10.90;9.90;;;;;;;30.50;47.11;100122.80;218375;1254;139626;-66
2023/08/20 16:43:41;;;;;;;13.20;10.40;;;;;;;30.36;48.02;100130.59;218268;1254;139837;-67
2023/08/20 16:48:44;;;;;;;14.00;11.00;;;;;;;30.21;48.69;100127.95;219761;1254;139290;-68
2023/08/20 16:53:47;;;;;;;9.20;8.30;;;;;;;30.03;49.12;100128.69;219657;1254;139870;-65
2023/08/20 16:58:52;;;;;;;10.60;7.50;;;;;;;29.80;49.76;100128.80;218608;1259;139343;-67
2023/08/20 17:03:54;;;;;;;11.80;9.90;;;;;;;29.53;50.66;100134.77;219634;1254;140745;-67
2023/08/20 17:08:57;;;;;;;20.30;9.00;;;;;;;29.23;51.95;100139.81;218500;1254;140152;-65
2023/08/20 17:14:00;;;;;;;10.70;7.80;;;;;;;28.98;52.61;100142.41;218047;1259;139236;-68
2023/08/20 17:19:04;;;;;;;10.90;8.70;;;;;;;28.75;53.45;100130.25;218949;1257;140015;-69
2023/08/20 17:24:09;;;;;;;9.20;8.40;;;;;;;28.52;54.50;100131.83;219084;1257;139952;-68
2023/08/20 17:29:11;;;;;;;10.20;9.30;;;;;;;28.28;55.80;100123.95;218315;1254;139674;-69
2023/08/20 17:34:17;;;;;;;10.10;9.10;;;;;;;27.98;56.46;100123.89;218938;1254;140450;-68
2023/08/20 17:39:22;;;;;;;9.90;9.00;;;;;;;27.72;57.23;100126.95;219476;1254;139501;-66
2023/08/20 17:44:26;;;;;;;9.30;8.50;;;;;;;27.48;57.95;100128.83;218659;1257;139760;-67
2023/08/20 17:49:32;;;;;;;11.60;10.60;;;;;;;27.23;58.68;100136.52;218305;1254;140555;-67
2023/08/20 17:54:41;;;;;;;10.40;9.40;;;;;;;26.91;59.29;100151.44;218166;1254;140621;-67
2023/08/20 17:59:46;;;;;;;;;;;;;;;26.67;60.05;100156.20;218234;1256;140135;-67
2023/08/20 18:04:51;;;;;;;11.80;10.60;;;;;;;26.41;60.96;100154.81;218571;1255;126511;-69
2023/08/20 18:09:55;;;;;;;10.30;9.40;;;;;;;26.11;61.38;100157.70;218192;1257;140591;-67
2023/08/20 18:14:58;;;;;;;11.00;10.00;;;;;;;25.95;62.36;100157.30;218687;1254;142395;-69
2023/08/20 18:20:03;;;;;;;12.50;10.90;;;;;;;25.75;62.95;100166.11;218368;1254;140335;-68
2023/08/20 18:25:09;;;;;;;14.40;12.70;;;;;;;25.59;63.75;100176.48;218161;1258;141653;-67
2023/08/20 18:30:12;;;;;;;10.30;9.50;;;;;;;25.56;64.60;100188.25;219752;1254;140941;-67
2023/08/20 18:35:14;;;;;;;11.80;10.70;;;;;;;25.55;65.58;100203.90;218362;1256;140231;-65
2023/08/20 18:40:17;;;;;;;16.70;13.70;;;;;;;25.52;65.79;100244.16;218113;1254;141418;-66
2023/08/20 18:45:19;;;;;;;21.60;8.90;;;;;;;25.47;65.08;100299.61;218503;1254;140869;-67
2023/08/20 18:50:22;;;;;;;7.30;5.60;;;;;;;25.38;64.35;100317.85;219559;1254;139882;-68
2023/08/20 19:32:58;;;;;;;3.50;2.50;;;;;;;21.31;70.26;100248.56;215579;1295;684543;-68
2023/08/20 19:38:04;;;;;;;4.00;2.80;;;;;;;21.25;71.64;100259.07;217999;1269;139884;-68
2023/08/20 19:43:09;;;;;;;4.20;2.10;;;;;;;21.34;72.21;100259.27;217062;1269;385427;-67
2023/08/20 19:48:12;;;;;;;5.80;2.70;;;;;;;21.40;72.76;100255.66;217050;1266;139618;-68
2023/08/20 19:53:15;;;;;;;8.00;3.00;;;;;;;21.47;73.23;100254.28;216953;1266;140508;-67
2023/08/20 19:58:19;;;;;;;2.70;2.20;;;;;;;21.49;73.58;100249.92;216675;1267;139243;-68
2023/08/20 20:03:26;;;;;;;4.80;3.00;;;;;;;21.44;74.06;100258.78;217327;1266;139024;-68
2023/08/20 20:08:31;;;;;;;10.20;3.40;;;;;;;21.44;74.47;100260.79;216738;1269;139297;-70
2023/08/20 20:13:36;;;;;;;3.80;3.20;;;;;;;21.39;74.63;100257.84;216634;1267;140039;-67
2023/08/20 20:18:40;;;;;;;3.70;3.10;;;;;;;21.33;75.25;100254.19;216929;1267;140170;-67
2023/08/20 20:23:45;;;;;;;4.10;3.70;;;;;;;21.31;75.70;100251.62;216690;1266;140426;-68
2023/08/20 20:28:49;;;;;;;4.20;3.80;;;;;;;21.30;76.04;100251.95;217400;1263;139778;-66
2023/08/20 20:33:52;;;;;;;5.80;3.20;;;;;;;21.31;76.25;100251.50;216590;1263;139806;-66
2023/08/20 20:38:56;;;;;;;5.50;3.90;;;;;;;21.34;76.58;100258.02;217254;1266;141316;-65
2023/08/20 20:43:58;;;;;;;6.60;4.10;;;;;;;21.32;76.72;100261.09;216995;1263;140667;-66
2023/08/20 20:49:00;;;;;;;4.00;3.60;;;;;;;21.20;76.81;100263.83;218263;1263;139255;-67
2023/08/20 20:54:03;;;;;;;5.10;3.80;;;;;;;21.18;77.07;100261.98;216947;1263;139621;-68
2023/08/20 20:59:06;;;;;;;5.70;3.10;;;;;;;21.17;77.13;100257.17;216899;1266;140407;-68
2023/08/20 21:04:09;;;;;;;3.60;3.30;;;;;;;21.14;77.40;100255.66;217285;1263;140261;-68
2023/08/20 21:09:12;;;;;;;6.00;4.40;;;;;;;21.09;77.39;100259.91;218173;1263;142691;-68
2023/08/20 21:14:17;;;;;;;5.00;3.20;;;;;;;20.97;77.13;100261.48;217467;1263;139744;-67
2023/08/20 21:19:20;;;;;;;3.90;3.30;;;;;;;20.87;77.51;100262.56;217110;1262;140327;-68
2023/08/20 21:24:22;;;;;;;5.10;3.90;;;;;;;20.81;77.74;100265.96;216814;1262;140982;-68
2023/08/20 21:29:25;;;;;;;4.40;4.10;;;;;;;20.77;78.02;100270.14;217117;1263;141074;-68
2023/08/20 21:34:31;;;;;;;6.60;4.10;;;;;;;20.72;78.07;100269.10;217519;1261;141890;-68
2023/08/20 21:39:34;;;;;;;6.50;3.70;;;;;;;20.67;78.24;100272.73;217851;1266;140330;-67
2023/08/20 21:44:38;;;;;;;6.40;4.30;;;;;;;20.59;78.35;100274.83;216955;1262;140865;-66
2023/08/20 21:49:42;;;;;;;4.00;3.70;;;;;;;20.53;78.58;100272.43;216802;1263;140145;-67
2023/08/20 21:54:47;;;;;;;4.50;4.20;;;;;;;20.43;78.63;100268.52;217321;1259;140072;-67
2023/08/20 21:59:51;;;;;;;5.20;4.60;;;;;;;20.38;79.07;100270.98;217635;1259;140370;-69
2023/08/20 22:05:17;;;;;;;5.90;4.90;;;;;;;20.36;79.18;100274.52;217549;1263;140669;-70
2023/08/20 22:10:21;;;;;;;4.80;4.40;;;;;;;20.32;79.24;100272.42;218215;1260;139752;-68
2023/08/20 22:15:24;;;;;;;5.10;4.70;;;;;;;20.30;79.51;100275.27;217576;1261;140037;-70
2023/08/20 22:20:27;;;;;;;12.20;5.10;;;;;;;20.29;79.47;100277.59;218046;1259;140091;-69
2023/08/20 22:25:33;;;;;;;3.30;3.00;;;;;;;20.25;79.50;100277.95;217218;1260;140319;-70
2023/08/20 22:30:43;;;;;;;8.60;4.40;;;;;;;20.21;79.80;100281.29;217292;1260;141848;-68
2023/08/20 22:36:02;;;;;;;4.70;4.30;;;;;;;20.17;80.10;100285.45;217891;1259;139484;-69
2023/08/20 22:41:09;;;;;;;9.40;4.00;;;;;;;20.10;79.77;100287.95;217649;1263;140058;-70
2023/08/20 22:46:17;;;;;;;4.20;3.90;;;;;;;19.98;80.00;100286.27;217408;1263;139924;-67
2023/08/20 22:51:23;;;;;;;5.40;4.70;;;;;;;19.92;80.27;100288.04;217805;1262;140743;-70
2023/08/20 22:56:29;;;;;;;9.50;3.90;;;;;;;19.83;80.26;100292.34;218659;1259;140474;-67
2023/08/20 23:01:33;;;;;;;5.40;4.40;;;;;;;19.79;80.72;100296.48;218088;1260;139967;-66
2023/08/20 23:06:36;;;;;;;5.60;4.20;;;;;;;19.78;80.70;100292.98;217135;1260;139290;-67
2023/08/20 23:11:39;;;;;;;5.50;5.00;;;;;;;19.72;80.71;100287.98;217253;1263;139943;-65
2023/08/20 23:16:42;;;;;;;8.40;4.70;;;;;;;19.69;81.09;100291.41;219916;1259;140303;-65
2023/08/20 23:21:48;;;;;;;5.30;4.60;;;;;;;19.63;80.95;100287.77;217106;1262;139458;-64
2023/08/20 23:26:52;;;;;;;5.90;5.30;;;;;;;19.55;81.21;100286.33;218646;1258;139442;-66